createdAt,value
2019-05-30T01:48:18.718Z,1.00
2019-05-30T01:50:49.587Z,1.00
2019-05-30T01:53:20.516Z,0.93
2019-05-30T01:55:51.047Z,0.70
2019-05-30T01:58:21.773Z,0.90
2019-05-30T02:00:52.377Z,0.80
2019-05-30T02:03:23.174Z,0.70
2019-05-30T02:05:55.186Z,0.90
2019-05-30T02:08:26.037Z,1.10
2019-05-30T02:10:56.678Z,1.00
2019-05-30T02:13:28.141Z,0.90
2019-05-30T02:15:59.618Z,1.00
2019-05-30T02:18:30.585Z,0.90
2019-05-30T02:21:02.132Z,1.30
2019-05-30T02:23:32.882Z,0.97
2019-05-30T02:26:04.105Z,1.00
2019-05-30T02:28:34.894Z,0.83
2019-05-30T02:31:06.988Z,1.03
2019-05-30T02:33:37.882Z,0.87
2019-05-30T02:36:10.984Z,0.90
2019-05-30T02:38:40.984Z,0.70
2019-05-30T02:41:12.525Z,0.90
2019-05-30T02:43:43.146Z,1.13
2019-05-30T02:46:13.611Z,1.17
2019-05-30T02:48:58.124Z,0.97
2019-05-30T02:51:17.085Z,1.00
2019-05-30T02:53:47.634Z,1.10
2019-05-30T02:56:18.172Z,1.20
2019-05-30T02:58:48.726Z,0.90
2019-05-30T03:01:19.463Z,1.00
2019-05-30T03:03:50.263Z,1.10
2019-05-30T03:06:21.180Z,1.10
2019-05-30T03:08:51.987Z,0.87
2019-05-30T03:11:22.820Z,1.23
2019-05-30T03:13:54.134Z,1.40
2019-05-30T03:16:24.882Z,0.93
2019-05-30T03:18:55.545Z,1.10
2019-05-30T03:21:26.483Z,0.90
2019-05-30T03:23:57.205Z,1.03
2019-05-30T03:26:28.134Z,1.20
2019-05-30T03:28:58.845Z,1.30
2019-05-30T03:31:32.440Z,0.90
2019-05-30T03:34:08.217Z,0.90
2019-05-30T03:36:35.572Z,0.90
2019-05-30T03:39:07.750Z,1.00
2019-05-30T03:41:39.986Z,1.27
2019-05-30T03:44:13.133Z,1.10
2019-05-30T03:46:47.738Z,1.23
2019-05-30T03:49:22.787Z,1.00
2019-05-30T03:51:55.870Z,0.83
2019-05-30T03:54:27.800Z,0.97
2019-05-30T03:57:07.330Z,0.87
2019-05-30T03:59:44.277Z,1.20
2019-05-30T04:02:25.359Z,1.00
2019-05-30T04:05:04.513Z,1.30
2019-05-30T04:07:39.542Z,1.20
2019-05-30T04:10:11.493Z,1.20
2019-05-30T04:13:12.266Z,1.03
2019-05-30T04:15:43.425Z,1.00
2019-05-30T04:18:16.604Z,1.40
2019-05-30T04:20:47.590Z,1.30
2019-05-30T04:23:19.422Z,1.30
2019-05-30T04:25:50.226Z,1.43
2019-05-30T04:28:21.023Z,1.40
2019-05-30T04:30:51.827Z,1.30
2019-05-30T04:33:32.362Z,1.27
2019-05-30T04:35:55.031Z,1.20
2019-05-30T04:38:25.934Z,1.37
2019-05-30T04:40:57.638Z,1.00
2019-05-30T04:43:29.284Z,1.23
2019-05-30T04:45:59.922Z,1.10
2019-05-30T04:48:30.770Z,1.20
2019-05-30T04:51:02.006Z,1.20
2019-05-30T04:53:32.939Z,1.43
2019-05-30T04:56:03.598Z,1.30
2019-05-30T04:58:34.426Z,1.50
2019-05-30T05:01:05.050Z,1.00
2019-05-30T05:03:44.948Z,1.10
2019-05-30T05:06:08.170Z,1.50
2019-05-30T05:08:38.855Z,1.43
2019-05-30T05:11:12.406Z,1.27
2019-05-30T05:13:41.988Z,1.43
2019-05-30T05:16:26.107Z,1.37
2019-05-30T05:18:45.136Z,1.40
2019-05-30T05:21:16.877Z,1.30
2019-05-30T05:23:47.827Z,1.20
2019-05-30T05:26:19.447Z,1.23
2019-05-30T05:28:51.306Z,1.20
2019-05-30T05:31:22.473Z,1.20
2019-05-30T05:33:56.545Z,1.10
2019-05-30T05:36:25.908Z,1.20
2019-05-30T05:38:56.757Z,1.10
2019-05-30T05:41:28.498Z,1.10
2019-05-30T05:43:59.131Z,1.13
2019-05-30T05:46:30.857Z,1.17
2019-05-30T05:49:01.453Z,0.90
2019-05-30T05:51:32.832Z,1.40
2019-05-30T05:54:03.953Z,1.63
2019-05-30T05:56:34.738Z,1.30
2019-05-30T05:59:05.690Z,1.23
2019-05-30T06:01:36.418Z,1.00
2019-05-30T06:04:13.153Z,1.20
2019-05-30T06:06:40.545Z,0.93
2019-05-30T06:09:11.438Z,1.50
2019-05-30T06:11:42.237Z,1.33
2019-05-30T06:14:13.114Z,1.13
2019-05-30T06:16:43.899Z,1.47
2019-05-30T06:19:14.799Z,1.43
2019-05-30T06:21:53.957Z,1.30
2019-05-30T06:24:19.502Z,1.27
2019-05-30T06:26:51.524Z,1.13
2019-05-30T06:29:22.219Z,1.23
2019-05-30T06:31:53.423Z,1.10
2019-05-30T06:34:32.562Z,1.23
2019-05-30T06:36:56.698Z,1.53
2019-05-30T06:39:27.702Z,1.40
2019-05-30T06:41:58.716Z,1.50
2019-05-30T06:44:30.213Z,1.30
2019-05-30T06:47:01.088Z,1.30
2019-05-30T06:49:32.603Z,1.40
2019-05-30T06:52:03.991Z,1.20
2019-05-30T06:54:34.805Z,1.13
2019-05-30T06:57:05.920Z,1.50
2019-05-30T06:59:36.593Z,1.87
2019-05-30T07:02:07.393Z,1.50
2019-05-30T07:04:50.854Z,1.03
2019-05-30T07:07:11.156Z,1.50
2019-05-30T07:09:42.293Z,1.47
2019-05-30T07:12:13.776Z,1.30
2019-05-30T07:14:45.099Z,1.23
2019-05-30T07:17:15.999Z,1.10
2019-05-30T07:19:46.811Z,1.50
2019-05-30T07:22:17.487Z,1.20
2019-05-30T07:24:47.995Z,1.10
2019-05-30T07:27:18.698Z,1.20
2019-05-30T07:29:49.586Z,1.07
2019-05-30T07:32:20.135Z,1.30
2019-05-30T07:35:05.671Z,1.20
2019-05-30T07:37:24.436Z,1.13
2019-05-30T07:39:55.441Z,1.43
2019-05-30T07:42:26.559Z,1.77
2019-05-30T07:44:57.161Z,1.70
2019-05-30T07:47:28.107Z,1.27
2019-05-30T07:49:59.184Z,1.50
2019-05-30T07:52:30.641Z,1.40
2019-05-30T07:55:01.133Z,1.30
2019-05-30T07:57:32.944Z,1.40
2019-05-30T08:00:04.952Z,1.10
2019-05-30T08:02:35.791Z,1.30
2019-05-30T08:05:22.733Z,1.27
2019-05-30T08:07:39.552Z,1.30
2019-05-30T08:10:11.861Z,1.73
2019-05-30T08:12:43.617Z,1.50
2019-05-30T08:15:15.171Z,1.37
2019-05-30T08:17:45.991Z,1.20
2019-05-30T08:20:17.471Z,1.67
2019-05-30T08:22:48.177Z,1.63
2019-05-30T08:25:19.185Z,1.10
2019-05-30T08:27:52.001Z,1.50
2019-05-30T08:30:23.037Z,1.27
2019-05-30T08:32:53.589Z,1.30
2019-05-30T08:35:39.298Z,1.37
2019-05-30T08:37:56.881Z,1.70
2019-05-30T08:40:27.571Z,1.40
2019-05-30T08:42:59.150Z,1.40
2019-05-30T08:45:30.064Z,1.50
2019-05-30T08:48:00.925Z,1.60
2019-05-30T08:50:32.365Z,1.23
2019-05-30T08:53:03.577Z,1.20
2019-05-30T08:55:34.654Z,1.43
2019-05-30T08:58:05.532Z,1.00
2019-05-30T09:00:36.169Z,1.50
2019-05-30T09:03:06.954Z,1.57
2019-05-30T09:05:38.704Z,1.33
2019-05-30T09:08:10.151Z,1.70
2019-05-30T09:10:41.308Z,1.10
2019-05-30T09:13:13.330Z,1.23
2019-05-30T09:15:45.280Z,1.33
2019-05-30T09:18:15.935Z,1.23
2019-05-30T09:20:47.461Z,1.50
2019-05-30T09:23:18.165Z,1.17
2019-05-30T09:25:49.454Z,1.40
2019-05-30T09:28:20.432Z,1.40
2019-05-30T09:30:51.041Z,1.57
2019-05-30T09:33:21.753Z,1.50
2019-05-30T09:35:52.610Z,1.40
2019-05-30T09:38:23.207Z,1.57
2019-05-30T09:40:53.802Z,1.50
2019-05-30T09:43:24.791Z,1.70
2019-05-30T09:45:55.688Z,1.53
2019-05-30T09:48:26.289Z,1.60
2019-05-30T09:50:57.032Z,1.43
2019-05-30T09:53:27.856Z,1.40
2019-05-30T09:55:59.958Z,1.20
2019-05-30T09:58:30.529Z,1.63
2019-05-30T10:01:01.522Z,1.27
2019-05-30T10:03:33.135Z,1.60
2019-05-30T10:06:04.374Z,1.50
2019-05-30T10:08:36.498Z,1.40
2019-05-30T10:11:07.133Z,1.43
2019-05-30T10:13:37.957Z,1.60
2019-05-30T10:16:08.775Z,1.33
2019-05-30T10:18:39.491Z,1.27
2019-05-30T10:21:10.457Z,1.63
2019-05-30T10:23:41.212Z,1.77
2019-05-30T10:26:12.166Z,1.47
2019-05-30T10:28:43.002Z,1.67
2019-05-30T10:31:13.886Z,1.47
2019-05-30T10:33:45.935Z,1.57
2019-05-30T10:36:20.025Z,1.60
2019-05-30T10:38:50.497Z,1.43
2019-05-30T10:41:22.826Z,1.60
2019-05-30T10:43:53.789Z,1.73
2019-05-30T10:46:24.436Z,1.47
2019-05-30T10:48:56.744Z,1.37
2019-05-30T10:51:27.657Z,1.57
2019-05-30T10:53:58.576Z,1.40
2019-05-30T10:56:29.573Z,1.63
2019-05-30T10:59:00.130Z,1.50
2019-05-30T11:01:30.717Z,1.40
2019-05-30T11:04:01.282Z,1.30
2019-05-30T11:06:56.846Z,1.40
2019-05-30T11:09:18.681Z,1.43
2019-05-30T11:11:50.688Z,1.70
2019-05-30T11:14:21.477Z,1.37
2019-05-30T11:16:53.769Z,1.30
2019-05-30T11:19:24.341Z,1.10
2019-05-30T11:21:56.241Z,1.70
2019-05-30T11:24:26.982Z,1.63
2019-05-30T11:26:58.986Z,1.50
2019-05-30T11:29:29.705Z,1.23
2019-05-30T11:32:00.633Z,1.40
2019-05-30T11:34:31.324Z,1.57
2019-05-30T11:37:18.362Z,1.43
2019-05-30T11:39:35.863Z,1.37
2019-05-30T11:42:06.524Z,1.70
2019-05-30T11:44:37.238Z,1.20
2019-05-30T11:47:07.961Z,1.30
2019-05-30T11:49:38.728Z,1.40
2019-05-30T11:52:09.261Z,1.30
2019-05-30T11:54:40.074Z,1.50
2019-05-30T11:57:10.879Z,1.50
2019-05-30T11:59:41.709Z,1.17
2019-05-30T12:02:12.473Z,1.57
2019-05-30T12:04:43.273Z,1.40
2019-05-30T12:07:14.659Z,1.33
2019-05-30T12:09:45.300Z,1.50
2019-05-30T12:12:15.957Z,1.60
2019-05-30T12:14:47.055Z,1.43
2019-05-30T12:17:17.877Z,1.33
2019-05-30T12:19:48.643Z,1.50
2019-05-30T12:22:19.502Z,1.60
2019-05-30T12:24:51.667Z,1.53
2019-05-30T12:27:22.421Z,1.50
2019-05-30T12:29:54.069Z,1.43
2019-05-30T12:32:25.490Z,1.60
2019-05-30T12:34:58.401Z,1.63
2019-05-30T12:37:29.469Z,1.40
2019-05-30T12:40:01.115Z,1.30
2019-05-30T12:42:32.340Z,1.60
2019-05-30T12:45:07.032Z,1.30
2019-05-30T12:47:35.642Z,1.70
2019-05-30T12:50:06.889Z,1.37
2019-05-30T12:52:37.854Z,1.50
2019-05-30T12:55:09.245Z,1.50
2019-05-30T12:57:39.933Z,1.37
2019-05-30T13:00:17.665Z,1.13
2019-05-30T13:02:44.881Z,1.50
2019-05-30T13:05:15.690Z,1.43
2019-05-30T13:07:46.591Z,1.70
2019-05-30T13:10:20.334Z,1.30
2019-05-30T13:12:51.120Z,1.57
2019-05-30T13:15:21.873Z,1.30
2019-05-30T13:17:52.700Z,1.20
2019-05-30T13:20:23.898Z,1.83
2019-05-30T13:22:54.718Z,1.33
2019-05-30T13:25:26.813Z,1.30
2019-05-30T13:28:01.943Z,1.77
2019-05-30T13:30:31.344Z,1.23
2019-05-30T13:33:03.055Z,1.50
2019-05-30T13:35:33.845Z,1.27
2019-05-30T13:38:05.271Z,1.30
2019-05-30T13:40:36.110Z,1.57
2019-05-30T13:43:08.039Z,1.50
2019-05-30T13:45:38.933Z,1.60
2019-05-30T13:48:10.075Z,1.60
2019-05-30T13:50:41.102Z,1.50
2019-05-30T13:53:11.709Z,1.50
2019-05-30T13:55:42.385Z,1.70
2019-05-30T13:58:13.330Z,1.73
2019-05-30T14:00:44.047Z,1.73
2019-05-30T14:03:14.741Z,1.40
2019-05-30T14:05:45.445Z,2.20
2019-05-30T14:08:16.879Z,3.73
2019-05-30T14:10:48.026Z,4.17
2019-05-30T14:13:18.634Z,3.90
2019-05-30T14:15:49.692Z,4.27
2019-05-30T14:18:20.458Z,3.80
2019-05-30T14:20:52.539Z,2.80
2019-05-30T14:23:23.114Z,2.70
2019-05-30T14:25:55.893Z,1.77
2019-05-30T14:28:28.146Z,2.13
2019-05-30T14:30:58.946Z,1.40
2019-05-30T14:33:29.893Z,1.50
2019-05-30T14:36:04.415Z,1.27
2019-05-30T14:38:33.310Z,1.60
2019-05-30T14:41:05.235Z,1.63
2019-05-30T14:43:35.991Z,2.07
2019-05-30T14:46:06.880Z,2.10
2019-05-30T14:48:37.584Z,1.83
2019-05-30T14:51:08.697Z,1.60
2019-05-30T14:53:39.781Z,2.67
2019-05-30T14:56:11.228Z,2.37
2019-05-30T14:58:42.218Z,2.40
2019-05-30T15:01:14.140Z,3.33
2019-05-30T15:03:44.729Z,2.33
2019-05-30T15:06:16.364Z,2.07
2019-05-30T15:08:47.701Z,1.87
2019-05-30T15:11:18.470Z,1.20
2019-05-30T15:13:50.054Z,1.60
2019-05-30T15:16:21.114Z,1.60
2019-05-30T15:18:51.895Z,1.80
2019-05-30T15:21:22.503Z,1.30
2019-05-30T15:23:53.060Z,1.40
2019-05-30T15:26:23.822Z,1.40
2019-05-30T15:28:56.521Z,1.70
2019-05-30T15:31:27.202Z,1.80
2019-05-30T15:33:58.165Z,1.80
2019-05-30T15:36:30.706Z,2.07
2019-05-30T15:39:01.169Z,1.60
2019-05-30T15:41:33.604Z,1.50
2019-05-30T15:44:04.537Z,2.00
2019-05-30T15:46:35.397Z,1.67
2019-05-30T15:49:06.402Z,1.83
2019-05-30T15:51:36.842Z,1.57
2019-05-30T15:54:08.756Z,1.80
2019-05-30T15:56:39.665Z,1.80
2019-05-30T15:59:13.668Z,2.20
2019-05-30T16:01:44.735Z,1.87
2019-05-30T16:04:16.321Z,1.97
2019-05-30T16:06:47.381Z,1.77
2019-05-30T16:09:18.896Z,1.63
2019-05-30T16:11:49.975Z,1.80
2019-05-30T16:14:21.587Z,1.63
2019-05-30T16:16:52.822Z,1.97
2019-05-30T16:19:26.504Z,1.50
2019-05-30T16:21:57.574Z,1.60
2019-05-30T16:24:29.525Z,1.87
2019-05-30T16:27:02.774Z,1.97
2019-05-30T16:29:34.863Z,1.83
2019-05-30T16:32:05.297Z,2.30
2019-05-30T16:34:36.087Z,2.10
2019-05-30T16:37:06.905Z,1.80
2019-05-30T16:39:37.826Z,1.50
2019-05-30T16:42:08.388Z,1.50
2019-05-30T16:44:39.521Z,1.53
2019-05-30T16:47:11.457Z,1.90
2019-05-30T16:49:42.546Z,1.77
2019-05-30T16:52:14.564Z,1.70
2019-05-30T16:54:45.539Z,1.40
2019-05-30T16:57:16.777Z,1.77
2019-05-30T16:59:47.304Z,1.50
2019-05-30T17:02:18.853Z,1.70
2019-05-30T17:04:49.732Z,1.63
2019-05-30T17:07:21.503Z,1.50
2019-05-30T17:09:52.417Z,1.60
2019-05-30T17:12:23.748Z,1.67
2019-05-30T17:14:54.549Z,1.63
2019-05-30T17:17:26.173Z,1.90
2019-05-30T17:19:56.845Z,1.70
2019-05-30T17:22:30.278Z,2.00
2019-05-30T17:25:01.005Z,1.80
2019-05-30T17:27:31.785Z,1.87
2019-05-30T17:30:02.800Z,2.07
2019-05-30T17:32:33.469Z,1.80
2019-05-30T17:35:04.289Z,1.57
2019-05-30T17:37:34.961Z,2.03
2019-05-30T17:40:06.207Z,2.00
2019-05-30T17:42:36.974Z,2.07
2019-05-30T17:45:09.038Z,1.70
2019-05-30T17:47:39.861Z,1.77
2019-05-30T17:50:10.933Z,1.87
2019-05-30T17:52:41.837Z,2.20
2019-05-30T17:55:13.117Z,1.70
2019-05-30T17:57:44.141Z,2.03
2019-05-30T18:00:16.468Z,2.33
2019-05-30T18:02:47.104Z,2.03
2019-05-30T18:05:17.807Z,1.80
2019-05-30T18:07:48.698Z,2.10
2019-05-30T18:10:20.733Z,2.00
2019-05-30T18:12:51.422Z,2.20
2019-05-30T18:15:25.003Z,1.83
2019-05-30T18:17:54.875Z,1.83
2019-05-30T18:20:25.889Z,2.10
2019-05-30T18:22:56.617Z,1.80
2019-05-30T18:25:27.653Z,2.10
2019-05-30T18:27:58.489Z,2.00
2019-05-30T18:30:40.577Z,1.90
2019-05-30T18:33:11.798Z,2.00
2019-05-30T18:35:42.971Z,1.90
2019-05-30T18:38:13.850Z,1.87
2019-05-30T18:40:44.706Z,2.00
2019-05-30T18:43:15.293Z,2.20
2019-05-30T18:45:46.569Z,2.00
2019-05-30T18:48:17.491Z,1.83
2019-05-30T18:50:48.310Z,2.27
2019-05-30T18:53:19.110Z,2.20
2019-05-30T18:55:49.837Z,1.90
2019-05-30T18:58:20.569Z,1.97
2019-05-30T19:00:51.467Z,2.23
2019-05-30T19:03:22.486Z,2.03
2019-05-30T19:05:54.674Z,2.10
2019-05-30T19:08:25.727Z,2.10
2019-05-30T19:10:56.737Z,2.10
2019-05-30T19:13:27.572Z,2.17
2019-05-30T19:15:58.563Z,2.30
2019-05-30T19:18:30.033Z,2.20
2019-05-30T19:21:00.807Z,2.10
2019-05-30T19:23:32.060Z,2.20
2019-05-30T19:26:02.885Z,1.83
2019-05-30T19:28:34.566Z,2.13
2019-05-30T19:31:05.473Z,2.00
2019-05-30T19:33:37.111Z,1.87
2019-05-30T19:36:07.992Z,2.20
2019-05-30T19:38:38.577Z,2.03
2019-05-30T19:41:09.170Z,2.40
2019-05-30T19:43:39.866Z,2.30
2019-05-30T19:46:13.176Z,2.40
2019-05-30T19:48:43.227Z,2.20
2019-05-30T19:51:14.262Z,2.53
2019-05-30T19:53:45.115Z,2.43
2019-05-30T19:56:15.964Z,2.43
2019-05-30T19:58:47.039Z,2.00
2019-05-30T20:01:18.137Z,2.63
2019-05-30T20:03:49.034Z,2.40
2019-05-30T20:06:20.207Z,2.20
2019-05-30T20:08:55.804Z,2.10
2019-05-30T20:11:24.597Z,2.10
2019-05-30T20:13:55.454Z,2.40
2019-05-30T20:16:26.122Z,2.30
2019-05-30T20:18:56.813Z,2.00
2019-05-30T20:21:27.497Z,2.33
2019-05-30T20:23:59.547Z,2.30
2019-05-30T20:26:30.381Z,2.50
2019-05-30T20:29:01.519Z,2.33
2019-05-30T20:31:33.352Z,2.73
2019-05-30T20:34:04.494Z,2.27
2019-05-30T20:36:36.455Z,2.17
2019-05-30T20:39:08.205Z,2.70
2019-05-30T20:41:38.997Z,2.43
2019-05-30T20:44:09.837Z,2.30
2019-05-30T20:46:41.174Z,2.30
2019-05-30T20:49:11.841Z,2.10
2019-05-30T20:51:43.369Z,2.30
2019-05-30T20:54:14.166Z,2.50
2019-05-30T20:56:48.694Z,2.03
2019-05-30T20:59:17.984Z,2.30
2019-05-30T21:01:48.805Z,2.27
2019-05-30T21:04:19.830Z,2.07
2019-05-30T21:06:51.152Z,2.33
2019-05-30T21:09:28.794Z,2.67
2019-05-30T21:11:54.610Z,2.07
2019-05-30T21:14:28.344Z,2.40
2019-05-30T21:17:00.621Z,2.47
2019-05-30T21:19:32.589Z,2.50
2019-05-30T21:22:03.441Z,2.33
2019-05-30T21:24:34.038Z,2.50
2019-05-30T21:27:04.789Z,1.97
2019-05-30T21:29:36.671Z,2.30
2019-05-30T21:32:07.497Z,2.70
2019-05-30T21:34:40.362Z,2.20
2019-05-30T21:37:11.901Z,2.10
2019-05-30T21:39:42.657Z,2.70
2019-05-30T21:42:14.425Z,2.07
2019-05-30T21:44:49.693Z,2.27
2019-05-30T21:47:18.674Z,2.40
2019-05-30T21:49:49.406Z,2.17
2019-05-30T21:52:20.214Z,2.30
2019-05-30T21:54:51.050Z,2.00
2019-05-30T21:57:21.661Z,1.93
2019-05-30T21:59:53.337Z,2.20
2019-05-30T22:02:24.138Z,2.10
2019-05-30T22:04:55.016Z,2.10
2019-05-30T22:07:26.878Z,2.20
2019-05-30T22:09:57.703Z,1.87
2019-05-30T22:12:28.234Z,1.80
2019-05-30T22:14:58.845Z,1.80
2019-05-30T22:17:29.562Z,2.20
2019-05-30T22:20:00.128Z,1.87
2019-05-30T22:22:30.891Z,2.20
2019-05-30T22:25:03.078Z,1.80
2019-05-30T22:27:34.138Z,1.97
2019-05-30T22:30:05.545Z,1.87
2019-05-30T22:32:37.428Z,1.77
2019-05-30T22:35:07.929Z,1.70
2019-05-30T22:37:38.934Z,1.80
2019-05-30T22:40:09.970Z,1.70
2019-05-30T22:42:41.074Z,1.40
2019-05-30T22:45:11.785Z,1.50
2019-05-30T22:47:42.681Z,1.40
2019-05-30T22:50:14.374Z,1.47
2019-05-30T22:52:46.814Z,1.80
2019-05-30T22:55:17.701Z,1.83
2019-05-30T22:57:48.379Z,1.60
2019-05-30T23:00:19.566Z,1.73
2019-05-30T23:02:50.453Z,1.47
2019-05-30T23:05:21.385Z,1.70
2019-05-30T23:07:51.866Z,1.57
2019-05-30T23:10:22.621Z,1.23
2019-05-30T23:12:54.061Z,1.03
2019-05-30T23:15:24.821Z,0.97
2019-05-30T23:17:56.816Z,0.90
2019-05-30T23:20:27.814Z,0.70
2019-05-30T23:22:58.672Z,0.93
2019-05-30T23:25:29.489Z,0.90
2019-05-30T23:28:00.013Z,0.83
2019-05-30T23:30:30.899Z,0.83
2019-05-30T23:33:01.636Z,0.80
2019-05-30T23:35:32.390Z,0.83
2019-05-30T23:38:03.185Z,0.87
2019-05-30T23:40:33.715Z,1.00
2019-05-30T23:43:04.626Z,1.00
2019-05-30T23:45:36.486Z,0.77
2019-05-30T23:48:07.417Z,0.90
2019-05-30T23:50:38.174Z,0.70
2019-05-30T23:53:09.033Z,0.80
2019-05-30T23:55:39.857Z,0.83
2019-05-30T23:58:10.698Z,0.80
